Glemsford, United Kingdom
Current Conditions -  °F | °C
As of 11:50 PM on Saturday 22 Nov 2014 (Local Time) from EGUW Reporting Station
Moderate Fog Moderate Fog  
Wind Chill: 54°   Ceiling: 1400
Heat Index: 54°   Visibility: 0.43mi
Dew Point: 54°   Wind: 5mph
Humidity: 100%   Direction: 180°S
Pressure: 29.97"   Gusts: NA
Location:  52.1°N, 0.67°E
Report Text: EGUW 222350Z AUTO 18004KT 0700 FG SCT001/// BKN014/// BKN050/// 12/12 Q1015
Loading
Personal Weather Stations






























Interactive Weather Map New forecast layout! Learn more

10-Day Weather Forecast

Advertisements
Track Severe Weather on mobile